sensor_id;sensor_type;location;lat;lon;timestamp;temperature;humidity
28761;DHT22;15917;50.014;8.352;2023-06-10T00:01:58;21.60;99.90
28761;DHT22;15917;50.014;8.352;2023-06-10T00:04:26;21.60;99.90
28761;DHT22;15917;50.014;8.352;2023-06-10T00:06:52;21.50;99.90
28761;DHT22;15917;50.014;8.352;2023-06-10T00:09:19;21.50;99.90
28761;DHT22;15917;50.014;8.352;2023-06-10T00:11:46;21.50;99.90
28761;DHT22;15917;50.014;8.352;2023-06-10T00:14:13;21.50;99.90
28761;DHT22;15917;50.014;8.352;2023-06-10T00:16:38;21.50;99.90
28761;DHT22;15917;50.014;8.352;2023-06-10T00:19:04;21.50;99.90
28761;DHT22;15917;50.014;8.352;2023-06-10T00:21:31;21.50;99.90
28761;DHT22;15917;50.014;8.352;2023-06-10T00:24:06;21.40;99.90
28761;DHT22;15917;50.014;8.352;2023-06-10T00:26:32;21.50;99.90
28761;DHT22;15917;50.014;8.352;2023-06-10T00:28:59;21.50;99.90
28761;DHT22;15917;50.014;8.352;2023-06-10T00:31:24;21.40;99.90
28761;DHT22;15917;50.014;8.352;2023-06-10T00:33:52;21.40;99.90
28761;DHT22;15917;50.014;8.352;2023-06-10T00:36:17;21.40;99.90
28761;DHT22;15917;50.014;8.352;2023-06-10T00:38:43;21.40;99.90
28761;DHT22;15917;50.014;8.352;2023-06-10T00:41:09;21.40;99.90
28761;DHT22;15917;50.014;8.352;2023-06-10T00:43:35;21.30;99.90
28761;DHT22;15917;50.014;8.352;2023-06-10T00:46:00;21.30;99.90
28761;DHT22;15917;50.014;8.352;2023-06-10T00:48:27;21.30;99.90
28761;DHT22;15917;50.014;8.352;2023-06-10T00:50:53;21.30;99.90
28761;DHT22;15917;50.014;8.352;2023-06-10T00:53:19;21.30;99.90
28761;DHT22;15917;50.014;8.352;2023-06-10T00:55:44;21.30;99.90
28761;DHT22;15917;50.014;8.352;2023-06-10T00:58:10;21.30;99.90
28761;DHT22;15917;50.014;8.352;2023-06-10T01:00:36;21.30;99.90
28761;DHT22;15917;50.014;8.352;2023-06-10T01:03:03;21.30;99.90
28761;DHT22;15917;50.014;8.352;2023-06-10T01:05:36;21.30;99.90
28761;DHT22;15917;50.014;8.352;2023-06-10T01:08:17;21.30;99.90
28761;DHT22;15917;50.014;8.352;2023-06-10T01:10:57;21.30;99.90
28761;DHT22;15917;50.014;8.352;2023-06-10T01:13:25;21.30;99.90
28761;DHT22;15917;50.014;8.352;2023-06-10T01:15:58;21.30;99.90
28761;DHT22;15917;50.014;8.352;2023-06-10T01:18:29;21.30;99.90
28761;DHT22;15917;50.014;8.352;2023-06-10T01:20:57;21.20;99.90
28761;DHT22;15917;50.014;8.352;2023-06-10T01:23:23;21.20;99.90
28761;DHT22;15917;50.014;8.352;2023-06-10T01:25:56;21.20;99.90
28761;DHT22;15917;50.014;8.352;2023-06-10T01:28:33;21.20;99.90
28761;DHT22;15917;50.014;8.352;2023-06-10T01:31:09;21.20;99.90
28761;DHT22;15917;50.014;8.352;2023-06-10T01:33:49;21.20;99.90
28761;DHT22;15917;50.014;8.352;2023-06-10T01:36:17;21.20;99.90
28761;DHT22;15917;50.014;8.352;2023-06-10T01:38:44;21.10;99.90
28761;DHT22;15917;50.014;8.352;2023-06-10T01:41:13;21.10;99.90
28761;DHT22;15917;50.014;8.352;2023-06-10T01:43:39;21.10;99.90
28761;DHT22;15917;50.014;8.352;2023-06-10T01:46:06;21.10;99.90
28761;DHT22;15917;50.014;8.352;2023-06-10T01:48:32;21.00;99.90
28761;DHT22;15917;50.014;8.352;2023-06-10T01:50:58;21.00;99.90
28761;DHT22;15917;50.014;8.352;2023-06-10T01:53:24;21.00;99.90
28761;DHT22;15917;50.014;8.352;2023-06-10T01:55:50;21.00;99.90
28761;DHT22;15917;50.014;8.352;2023-06-10T01:58:16;21.00;99.90
28761;DHT22;15917;50.014;8.352;2023-06-10T02:00:42;20.90;99.90
28761;DHT22;15917;50.014;8.352;2023-06-10T02:03:08;21.00;99.90
28761;DHT22;15917;50.014;8.352;2023-06-10T02:05:33;20.90;99.90
28761;DHT22;15917;50.014;8.352;2023-06-10T02:07:59;20.90;99.90
28761;DHT22;15917;50.014;8.352;2023-06-10T02:10:26;20.90;99.90
28761;DHT22;15917;50.014;8.352;2023-06-10T02:12:51;20.90;99.90
28761;DHT22;15917;50.014;8.352;2023-06-10T02:15:18;20.90;99.90
28761;DHT22;15917;50.014;8.352;2023-06-10T02:17:46;20.90;99.90
28761;DHT22;15917;50.014;8.352;2023-06-10T02:20:12;20.90;99.90
28761;DHT22;15917;50.014;8.352;2023-06-10T02:22:39;20.90;99.90
28761;DHT22;15917;50.014;8.352;2023-06-10T02:25:07;20.90;99.90
28761;DHT22;15917;50.014;8.352;2023-06-10T02:27:33;20.80;99.90
28761;DHT22;15917;50.014;8.352;2023-06-10T02:29:59;20.80;99.90
28761;DHT22;15917;50.014;8.352;2023-06-10T02:32:25;20.80;99.90
28761;DHT22;15917;50.014;8.352;2023-06-10T02:34:51;20.80;99.90
28761;DHT22;15917;50.014;8.352;2023-06-10T02:37:18;20.80;99.90
28761;DHT22;15917;50.014;8.352;2023-06-10T02:39:44;20.80;99.90
28761;DHT22;15917;50.014;8.352;2023-06-10T02:42:10;20.80;99.90
28761;DHT22;15917;50.014;8.352;2023-06-10T02:44:38;20.80;99.90
28761;DHT22;15917;50.014;8.352;2023-06-10T02:47:04;20.80;99.90
28761;DHT22;15917;50.014;8.352;2023-06-10T02:49:32;20.80;99.90
28761;DHT22;15917;50.014;8.352;2023-06-10T02:51:59;20.70;99.90
28761;DHT22;15917;50.014;8.352;2023-06-10T02:54:25;20.70;99.90
28761;DHT22;15917;50.014;8.352;2023-06-10T02:56:52;20.70;99.90
28761;DHT22;15917;50.014;8.352;2023-06-10T02:59:23;20.70;99.90
28761;DHT22;15917;50.014;8.352;2023-06-10T03:01:49;20.70;99.90
28761;DHT22;15917;50.014;8.352;2023-06-10T03:04:14;20.70;99.90
28761;DHT22;15917;50.014;8.352;2023-06-10T03:06:45;20.70;99.90
28761;DHT22;15917;50.014;8.352;2023-06-10T03:09:18;20.70;99.90
28761;DHT22;15917;50.014;8.352;2023-06-10T03:11:47;20.70;99.90
28761;DHT22;15917;50.014;8.352;2023-06-10T03:14:12;20.70;99.90
28761;DHT22;15917;50.014;8.352;2023-06-10T03:16:38;20.70;99.90
28761;DHT22;15917;50.014;8.352;2023-06-10T03:19:08;20.70;99.90
28761;DHT22;15917;50.014;8.352;2023-06-10T03:21:35;20.70;99.90
28761;DHT22;15917;50.014;8.352;2023-06-10T03:24:04;20.70;99.90
28761;DHT22;15917;50.014;8.352;2023-06-10T03:26:32;20.60;99.90
28761;DHT22;15917;50.014;8.352;2023-06-10T03:28:58;20.60;99.90
28761;DHT22;15917;50.014;8.352;2023-06-10T03:31:24;20.60;99.90
28761;DHT22;15917;50.014;8.352;2023-06-10T03:33:51;20.70;99.90
28761;DHT22;15917;50.014;8.352;2023-06-10T03:36:17;20.60;99.90
28761;DHT22;15917;50.014;8.352;2023-06-10T03:38:43;20.70;99.90
28761;DHT22;15917;50.014;8.352;2023-06-10T03:41:09;20.60;99.90
28761;DHT22;15917;50.014;8.352;2023-06-10T03:43:37;20.60;99.90
28761;DHT22;15917;50.014;8.352;2023-06-10T03:46:06;20.70;99.90
28761;DHT22;15917;50.014;8.352;2023-06-10T03:48:32;20.60;99.90
28761;DHT22;15917;50.014;8.352;2023-06-10T03:50:58;20.60;99.90
28761;DHT22;15917;50.014;8.352;2023-06-10T03:53:24;20.60;99.90
28761;DHT22;15917;50.014;8.352;2023-06-10T03:55:50;20.60;99.90
28761;DHT22;15917;50.014;8.352;2023-06-10T03:58:19;20.60;99.90
28761;DHT22;15917;50.014;8.352;2023-06-10T04:00:46;20.50;99.90
28761;DHT22;15917;50.014;8.352;2023-06-10T04:03:12;20.50;99.90
28761;DHT22;15917;50.014;8.352;2023-06-10T04:05:44;20.50;99.90
28761;DHT22;15917;50.014;8.352;2023-06-10T04:08:09;20.50;99.90
28761;DHT22;15917;50.014;8.352;2023-06-10T04:10:35;20.50;99.90
28761;DHT22;15917;50.014;8.352;2023-06-10T04:13:01;20.50;99.90
28761;DHT22;15917;50.014;8.352;2023-06-10T04:15:31;20.60;99.90
28761;DHT22;15917;50.014;8.352;2023-06-10T04:18:05;20.60;99.90
28761;DHT22;15917;50.014;8.352;2023-06-10T04:20:31;20.60;99.90
28761;DHT22;15917;50.014;8.352;2023-06-10T04:22:57;20.60;99.90
28761;DHT22;15917;50.014;8.352;2023-06-10T04:25:23;20.60;99.90
28761;DHT22;15917;50.014;8.352;2023-06-10T04:27:49;20.60;99.90
28761;DHT22;15917;50.014;8.352;2023-06-10T04:30:16;20.60;99.90
28761;DHT22;15917;50.014;8.352;2023-06-10T04:32:42;20.60;99.90
28761;DHT22;15917;50.014;8.352;2023-06-10T04:35:15;20.60;99.90
28761;DHT22;15917;50.014;8.352;2023-06-10T04:37:41;20.60;99.90
28761;DHT22;15917;50.014;8.352;2023-06-10T04:40:09;20.60;99.90
28761;DHT22;15917;50.014;8.352;2023-06-10T04:42:36;20.60;99.90
28761;DHT22;15917;50.014;8.352;2023-06-10T04:45:02;20.70;99.90
28761;DHT22;15917;50.014;8.352;2023-06-10T04:47:30;20.70;99.90
28761;DHT22;15917;50.014;8.352;2023-06-10T04:50:00;20.70;99.90
28761;DHT22;15917;50.014;8.352;2023-06-10T04:52:25;20.80;99.90
28761;DHT22;15917;50.014;8.352;2023-06-10T04:54:51;20.80;99.90
28761;DHT22;15917;50.014;8.352;2023-06-10T04:57:17;20.90;99.90
28761;DHT22;15917;50.014;8.352;2023-06-10T04:59:42;20.90;99.90
28761;DHT22;15917;50.014;8.352;2023-06-10T05:02:08;21.00;99.90
28761;DHT22;15917;50.014;8.352;2023-06-10T05:04:34;21.00;99.90
28761;DHT22;15917;50.014;8.352;2023-06-10T05:06:59;21.10;99.90
28761;DHT22;15917;50.014;8.352;2023-06-10T05:09:25;21.20;99.90
28761;DHT22;15917;50.014;8.352;2023-06-10T05:11:51;21.20;99.90
28761;DHT22;15917;50.014;8.352;2023-06-10T05:14:19;21.30;99.90
28761;DHT22;15917;50.014;8.352;2023-06-10T05:16:46;21.30;99.90
28761;DHT22;15917;50.014;8.352;2023-06-10T05:19:12;21.40;99.90
28761;DHT22;15917;50.014;8.352;2023-06-10T05:21:38;21.40;99.90
28761;DHT22;15917;50.014;8.352;2023-06-10T05:24:04;21.50;99.90
28761;DHT22;15917;50.014;8.352;2023-06-10T05:26:29;21.50;99.90
28761;DHT22;15917;50.014;8.352;2023-06-10T05:28:57;21.50;99.90
28761;DHT22;15917;50.014;8.352;2023-06-10T05:31:24;21.60;99.90
28761;DHT22;15917;50.014;8.352;2023-06-10T05:33:49;21.70;99.90
28761;DHT22;15917;50.014;8.352;2023-06-10T05:36:15;21.70;99.90
28761;DHT22;15917;50.014;8.352;2023-06-10T05:38:40;21.80;99.90
28761;DHT22;15917;50.014;8.352;2023-06-10T05:41:06;21.90;99.90
28761;DHT22;15917;50.014;8.352;2023-06-10T05:43:32;21.90;99.90
28761;DHT22;15917;50.014;8.352;2023-06-10T05:45:57;22.10;99.90
28761;DHT22;15917;50.014;8.352;2023-06-10T05:48:23;22.20;99.90
28761;DHT22;15917;50.014;8.352;2023-06-10T05:50:49;22.20;99.90
28761;DHT22;15917;50.014;8.352;2023-06-10T05:53:15;22.40;99.90
28761;DHT22;15917;50.014;8.352;2023-06-10T05:55:44;22.40;99.90
28761;DHT22;15917;50.014;8.352;2023-06-10T05:58:11;22.50;99.90
28761;DHT22;15917;50.014;8.352;2023-06-10T06:00:38;22.60;99.90
28761;DHT22;15917;50.014;8.352;2023-06-10T06:03:07;22.60;99.90
28761;DHT22;15917;50.014;8.352;2023-06-10T06:05:33;22.70;99.90
28761;DHT22;15917;50.014;8.352;2023-06-10T06:08:04;22.80;99.80
28761;DHT22;15917;50.014;8.352;2023-06-10T06:10:30;22.80;99.60
28761;DHT22;15917;50.014;8.352;2023-06-10T06:12:56;22.90;99.70
28761;DHT22;15917;50.014;8.352;2023-06-10T06:15:22;22.90;99.30
28761;DHT22;15917;50.014;8.352;2023-06-10T06:17:47;22.90;99.40
28761;DHT22;15917;50.014;8.352;2023-06-10T06:20:13;22.90;99.30
28761;DHT22;15917;50.014;8.352;2023-06-10T06:22:38;22.90;99.20
28761;DHT22;15917;50.014;8.352;2023-06-10T06:25:05;22.90;99.20
28761;DHT22;15917;50.014;8.352;2023-06-10T06:27:31;23.00;99.20
28761;DHT22;15917;50.014;8.352;2023-06-10T06:29:57;23.00;99.10
28761;DHT22;15917;50.014;8.352;2023-06-10T06:32:22;23.10;99.00
28761;DHT22;15917;50.014;8.352;2023-06-10T06:34:50;23.10;98.90
28761;DHT22;15917;50.014;8.352;2023-06-10T06:37:23;23.20;99.00
28761;DHT22;15917;50.014;8.352;2023-06-10T06:39:54;23.20;99.00
28761;DHT22;15917;50.014;8.352;2023-06-10T06:42:20;23.20;98.70
28761;DHT22;15917;50.014;8.352;2023-06-10T06:44:58;23.30;98.90
28761;DHT22;15917;50.014;8.352;2023-06-10T06:47:24;23.40;99.00
28761;DHT22;15917;50.014;8.352;2023-06-10T06:49:50;23.50;98.80
28761;DHT22;15917;50.014;8.352;2023-06-10T06:52:16;23.50;98.70
28761;DHT22;15917;50.014;8.352;2023-06-10T06:54:41;23.60;98.30
28761;DHT22;15917;50.014;8.352;2023-06-10T06:57:07;23.70;98.30
28761;DHT22;15917;50.014;8.352;2023-06-10T06:59:33;23.70;98.00
28761;DHT22;15917;50.014;8.352;2023-06-10T07:01:58;23.70;98.00
28761;DHT22;15917;50.014;8.352;2023-06-10T07:04:24;23.80;98.30
28761;DHT22;15917;50.014;8.352;2023-06-10T07:06:50;23.80;98.10
28761;DHT22;15917;50.014;8.352;2023-06-10T07:09:15;23.80;98.20
28761;DHT22;15917;50.014;8.352;2023-06-10T07:11:41;23.80;98.30
28761;DHT22;15917;50.014;8.352;2023-06-10T07:14:07;23.90;98.10
28761;DHT22;15917;50.014;8.352;2023-06-10T07:16:33;23.90;98.20
28761;DHT22;15917;50.014;8.352;2023-06-10T07:18:58;24.10;98.30
28761;DHT22;15917;50.014;8.352;2023-06-10T07:21:24;24.10;98.10
28761;DHT22;15917;50.014;8.352;2023-06-10T07:23:50;24.10;98.20
28761;DHT22;15917;50.014;8.352;2023-06-10T07:26:19;24.20;98.00
28761;DHT22;15917;50.014;8.352;2023-06-10T07:28:44;24.20;98.00
28761;DHT22;15917;50.014;8.352;2023-06-10T07:31:10;24.20;97.90
28761;DHT22;15917;50.014;8.352;2023-06-10T07:33:37;24.30;98.00
28761;DHT22;15917;50.014;8.352;2023-06-10T07:36:05;24.30;98.10
28761;DHT22;15917;50.014;8.352;2023-06-10T07:38:30;24.40;97.90
28761;DHT22;15917;50.014;8.352;2023-06-10T07:40:56;24.40;97.90
28761;DHT22;15917;50.014;8.352;2023-06-10T07:43:22;24.50;98.10
28761;DHT22;15917;50.014;8.352;2023-06-10T07:45:47;24.60;98.00
28761;DHT22;15917;50.014;8.352;2023-06-10T07:48:13;24.60;97.90
28761;DHT22;15917;50.014;8.352;2023-06-10T07:50:39;24.70;98.00
28761;DHT22;15917;50.014;8.352;2023-06-10T07:53:05;24.70;98.00
28761;DHT22;15917;50.014;8.352;2023-06-10T07:55:31;24.70;97.50
28761;DHT22;15917;50.014;8.352;2023-06-10T07:57:57;24.80;97.40
28761;DHT22;15917;50.014;8.352;2023-06-10T08:00:22;24.90;97.30
28761;DHT22;15917;50.014;8.352;2023-06-10T08:02:48;24.90;97.30
28761;DHT22;15917;50.014;8.352;2023-06-10T08:05:13;24.90;97.50
28761;DHT22;15917;50.014;8.352;2023-06-10T08:07:40;24.90;97.60
28761;DHT22;15917;50.014;8.352;2023-06-10T08:10:06;25.00;98.00
28761;DHT22;15917;50.014;8.352;2023-06-10T08:12:32;25.10;97.40
28761;DHT22;15917;50.014;8.352;2023-06-10T08:14:58;25.20;97.40
28761;DHT22;15917;50.014;8.352;2023-06-10T08:17:23;25.20;97.10
28761;DHT22;15917;50.014;8.352;2023-06-10T08:19:49;25.30;97.20
28761;DHT22;15917;50.014;8.352;2023-06-10T08:22:15;25.40;97.30
28761;DHT22;15917;50.014;8.352;2023-06-10T08:24:40;25.40;96.90
28761;DHT22;15917;50.014;8.352;2023-06-10T08:27:06;25.50;97.20
28761;DHT22;15917;50.014;8.352;2023-06-10T08:29:32;25.70;97.20
28761;DHT22;15917;50.014;8.352;2023-06-10T08:31:58;25.70;96.90
28761;DHT22;15917;50.014;8.352;2023-06-10T08:34:24;25.70;97.10
28761;DHT22;15917;50.014;8.352;2023-06-10T08:36:50;25.80;97.30
28761;DHT22;15917;50.014;8.352;2023-06-10T08:39:19;25.90;96.40
28761;DHT22;15917;50.014;8.352;2023-06-10T08:41:56;25.90;97.00
28761;DHT22;15917;50.014;8.352;2023-06-10T08:44:28;26.10;96.70
28761;DHT22;15917;50.014;8.352;2023-06-10T08:46:56;26.20;96.10
28761;DHT22;15917;50.014;8.352;2023-06-10T08:49:26;26.20;95.90
28761;DHT22;15917;50.014;8.352;2023-06-10T08:51:56;26.40;95.80
28761;DHT22;15917;50.014;8.352;2023-06-10T08:54:26;26.40;95.90
28761;DHT22;15917;50.014;8.352;2023-06-10T08:56:53;26.60;95.70
28761;DHT22;15917;50.014;8.352;2023-06-10T08:59:20;26.70;95.40
28761;DHT22;15917;50.014;8.352;2023-06-10T09:01:46;26.90;95.20
28761;DHT22;15917;50.014;8.352;2023-06-10T09:04:13;27.00;94.60
28761;DHT22;15917;50.014;8.352;2023-06-10T09:06:40;27.00;94.80
28761;DHT22;15917;50.014;8.352;2023-06-10T09:09:06;27.00;95.30
28761;DHT22;15917;50.014;8.352;2023-06-10T09:11:33;27.10;95.30
28761;DHT22;15917;50.014;8.352;2023-06-10T09:13:58;27.20;94.10
28761;DHT22;15917;50.014;8.352;2023-06-10T09:16:25;27.30;94.30
28761;DHT22;15917;50.014;8.352;2023-06-10T09:18:51;27.40;94.60
28761;DHT22;15917;50.014;8.352;2023-06-10T09:21:23;27.50;94.70
28761;DHT22;15917;50.014;8.352;2023-06-10T09:23:49;27.60;94.40
28761;DHT22;15917;50.014;8.352;2023-06-10T09:26:15;27.70;94.50
28761;DHT22;15917;50.014;8.352;2023-06-10T09:28:44;27.80;93.90
28761;DHT22;15917;50.014;8.352;2023-06-10T09:31:13;27.80;94.00
28761;DHT22;15917;50.014;8.352;2023-06-10T09:33:39;27.80;94.00
28761;DHT22;15917;50.014;8.352;2023-06-10T09:36:05;27.90;93.60
28761;DHT22;15917;50.014;8.352;2023-06-10T09:38:33;28.10;93.70
28761;DHT22;15917;50.014;8.352;2023-06-10T09:40:59;28.20;93.80
28761;DHT22;15917;50.014;8.352;2023-06-10T09:43:38;28.30;93.50
28761;DHT22;15917;50.014;8.352;2023-06-10T09:46:03;28.40;93.20
28761;DHT22;15917;50.014;8.352;2023-06-10T09:48:29;28.40;93.10
28761;DHT22;15917;50.014;8.352;2023-06-10T09:50:54;28.50;93.60
28761;DHT22;15917;50.014;8.352;2023-06-10T09:53:20;28.60;92.50
28761;DHT22;15917;50.014;8.352;2023-06-10T09:55:46;28.70;92.60
28761;DHT22;15917;50.014;8.352;2023-06-10T09:58:11;28.80;92.90
28761;DHT22;15917;50.014;8.352;2023-06-10T10:00:37;29.00;92.70
28761;DHT22;15917;50.014;8.352;2023-06-10T10:03:03;29.20;92.50
28761;DHT22;15917;50.014;8.352;2023-06-10T10:05:29;29.20;92.10
28761;DHT22;15917;50.014;8.352;2023-06-10T10:07:55;29.20;92.20
28761;DHT22;15917;50.014;8.352;2023-06-10T10:10:22;29.40;91.70
28761;DHT22;15917;50.014;8.352;2023-06-10T10:12:48;29.40;90.80
28761;DHT22;15917;50.014;8.352;2023-06-10T10:15:17;29.50;90.80
28761;DHT22;15917;50.014;8.352;2023-06-10T10:17:55;29.60;91.00
28761;DHT22;15917;50.014;8.352;2023-06-10T10:20:29;29.80;91.80
28761;DHT22;15917;50.014;8.352;2023-06-10T10:22:58;29.90;90.70
28761;DHT22;15917;50.014;8.352;2023-06-10T10:25:28;30.00;90.70
28761;DHT22;15917;50.014;8.352;2023-06-10T10:27:59;30.00;91.10
28761;DHT22;15917;50.014;8.352;2023-06-10T10:30:28;30.00;90.40
28761;DHT22;15917;50.014;8.352;2023-06-10T10:33:04;30.10;90.20
28761;DHT22;15917;50.014;8.352;2023-06-10T10:35:31;30.10;90.50
28761;DHT22;15917;50.014;8.352;2023-06-10T10:37:58;30.10;90.80
28761;DHT22;15917;50.014;8.352;2023-06-10T10:40:25;30.20;90.30
28761;DHT22;15917;50.014;8.352;2023-06-10T10:42:56;30.20;90.50
28761;DHT22;15917;50.014;8.352;2023-06-10T10:45:23;30.30;91.00
28761;DHT22;15917;50.014;8.352;2023-06-10T10:47:52;30.50;90.80
28761;DHT22;15917;50.014;8.352;2023-06-10T10:50:19;30.60;90.00
28761;DHT22;15917;50.014;8.352;2023-06-10T10:52:55;30.70;87.50
28761;DHT22;15917;50.014;8.352;2023-06-10T10:55:25;30.70;86.90
28761;DHT22;15917;50.014;8.352;2023-06-10T10:57:59;30.80;88.10
28761;DHT22;15917;50.014;8.352;2023-06-10T11:00:29;30.90;87.50
28761;DHT22;15917;50.014;8.352;2023-06-10T11:08:08;31.00;87.10
28761;DHT22;15917;50.014;8.352;2023-06-10T11:10:36;31.20;86.50
28761;DHT22;15917;50.014;8.352;2023-06-10T11:13:10;31.30;87.50
28761;DHT22;15917;50.014;8.352;2023-06-10T11:28:39;31.60;84.80
28761;DHT22;15917;50.014;8.352;2023-06-10T11:31:05;31.40;85.10
28761;DHT22;15917;50.014;8.352;2023-06-10T11:33:31;31.20;85.90
28761;DHT22;15917;50.014;8.352;2023-06-10T11:35:57;31.40;85.30
28761;DHT22;15917;50.014;8.352;2023-06-10T11:38:24;31.50;84.20
28761;DHT22;15917;50.014;8.352;2023-06-10T11:40:51;31.70;84.70
28761;DHT22;15917;50.014;8.352;2023-06-10T11:43:17;31.80;83.40
28761;DHT22;15917;50.014;8.352;2023-06-10T11:45:43;31.80;82.50
28761;DHT22;15917;50.014;8.352;2023-06-10T11:48:10;31.70;82.90
28761;DHT22;15917;50.014;8.352;2023-06-10T11:50:36;31.80;82.20
28761;DHT22;15917;50.014;8.352;2023-06-10T11:53:02;31.70;81.60
28761;DHT22;15917;50.014;8.352;2023-06-10T11:55:46;31.80;82.50
28761;DHT22;15917;50.014;8.352;2023-06-10T11:58:16;32.20;81.70
28761;DHT22;15917;50.014;8.352;2023-06-10T12:00:46;32.30;81.10
28761;DHT22;15917;50.014;8.352;2023-06-10T12:03:13;32.50;79.30
28761;DHT22;15917;50.014;8.352;2023-06-10T12:05:39;32.50;78.80
28761;DHT22;15917;50.014;8.352;2023-06-10T12:08:09;32.30;78.20
28761;DHT22;15917;50.014;8.352;2023-06-10T12:10:42;32.10;78.90
28761;DHT22;15917;50.014;8.352;2023-06-10T12:13:09;32.00;78.50
28761;DHT22;15917;50.014;8.352;2023-06-10T12:15:35;32.10;77.50
28761;DHT22;15917;50.014;8.352;2023-06-10T12:18:01;32.30;76.90
28761;DHT22;15917;50.014;8.352;2023-06-10T12:20:29;32.40;77.50
28761;DHT22;15917;50.014;8.352;2023-06-10T12:22:55;32.50;77.30
28761;DHT22;15917;50.014;8.352;2023-06-10T12:25:25;32.50;75.60
28761;DHT22;15917;50.014;8.352;2023-06-10T12:27:53;32.40;75.40
28761;DHT22;15917;50.014;8.352;2023-06-10T12:30:23;32.10;75.50
28761;DHT22;15917;50.014;8.352;2023-06-10T12:32:50;31.90;75.30
28761;DHT22;15917;50.014;8.352;2023-06-10T12:35:17;31.90;75.50
28761;DHT22;15917;50.014;8.352;2023-06-10T12:40:29;32.30;74.80
28761;DHT22;15917;50.014;8.352;2023-06-10T12:42:57;32.40;74.60
28761;DHT22;15917;50.014;8.352;2023-06-10T12:45:32;32.60;72.60
28761;DHT22;15917;50.014;8.352;2023-06-10T12:48:09;32.70;73.30
28761;DHT22;15917;50.014;8.352;2023-06-10T12:50:37;32.90;73.10
28761;DHT22;15917;50.014;8.352;2023-06-10T12:53:03;33.10;73.30
28761;DHT22;15917;50.014;8.352;2023-06-10T12:55:28;33.10;70.90
28761;DHT22;15917;50.014;8.352;2023-06-10T12:57:54;33.10;72.10
28761;DHT22;15917;50.014;8.352;2023-06-10T13:00:20;32.90;73.00
28761;DHT22;15917;50.014;8.352;2023-06-10T13:02:48;32.90;73.30
28761;DHT22;15917;50.014;8.352;2023-06-10T13:05:13;33.00;73.90
28761;DHT22;15917;50.014;8.352;2023-06-10T13:07:39;33.10;74.70
28761;DHT22;15917;50.014;8.352;2023-06-10T13:10:06;33.10;73.60
28761;DHT22;15917;50.014;8.352;2023-06-10T13:12:32;33.10;73.00
28761;DHT22;15917;50.014;8.352;2023-06-10T13:14:58;33.30;72.60
28761;DHT22;15917;50.014;8.352;2023-06-10T13:17:24;33.20;72.10
28761;DHT22;15917;50.014;8.352;2023-06-10T13:19:50;33.10;71.80
28761;DHT22;15917;50.014;8.352;2023-06-10T13:22:15;33.30;71.10
28761;DHT22;15917;50.014;8.352;2023-06-10T13:24:41;33.40;71.60
28761;DHT22;15917;50.014;8.352;2023-06-10T13:27:09;33.50;71.60
28761;DHT22;15917;50.014;8.352;2023-06-10T13:29:34;33.60;71.80
28761;DHT22;15917;50.014;8.352;2023-06-10T13:32:00;33.50;71.80
28761;DHT22;15917;50.014;8.352;2023-06-10T13:34:25;33.40;70.30
28761;DHT22;15917;50.014;8.352;2023-06-10T13:36:51;33.30;71.40
28761;DHT22;15917;50.014;8.352;2023-06-10T13:39:16;33.50;72.30
28761;DHT22;15917;50.014;8.352;2023-06-10T13:41:42;33.60;71.20
28761;DHT22;15917;50.014;8.352;2023-06-10T13:44:08;33.60;71.30
28761;DHT22;15917;50.014;8.352;2023-06-10T13:46:34;33.60;71.00
28761;DHT22;15917;50.014;8.352;2023-06-10T13:48:59;33.70;71.00
28761;DHT22;15917;50.014;8.352;2023-06-10T13:51:25;33.80;71.40
28761;DHT22;15917;50.014;8.352;2023-06-10T13:53:51;33.70;69.90
28761;DHT22;15917;50.014;8.352;2023-06-10T13:56:18;33.70;69.10
28761;DHT22;15917;50.014;8.352;2023-06-10T13:58:43;33.80;69.70
28761;DHT22;15917;50.014;8.352;2023-06-10T14:01:09;33.80;69.00
28761;DHT22;15917;50.014;8.352;2023-06-10T14:03:35;33.90;68.90
28761;DHT22;15917;50.014;8.352;2023-06-10T14:06:00;33.90;68.90
28761;DHT22;15917;50.014;8.352;2023-06-10T14:08:27;33.90;67.80
28761;DHT22;15917;50.014;8.352;2023-06-10T14:10:52;34.10;68.10
28761;DHT22;15917;50.014;8.352;2023-06-10T14:13:18;34.00;68.50
28761;DHT22;15917;50.014;8.352;2023-06-10T14:15:44;33.80;68.90
28761;DHT22;15917;50.014;8.352;2023-06-10T14:18:10;33.80;69.60
28761;DHT22;15917;50.014;8.352;2023-06-10T14:20:36;33.90;69.00
28761;DHT22;15917;50.014;8.352;2023-06-10T14:23:02;33.60;68.70
28761;DHT22;15917;50.014;8.352;2023-06-10T14:25:27;33.20;70.00
28761;DHT22;15917;50.014;8.352;2023-06-10T14:27:53;32.70;68.80
28761;DHT22;15917;50.014;8.352;2023-06-10T14:30:19;32.20;69.40
28761;DHT22;15917;50.014;8.352;2023-06-10T14:32:45;32.00;71.70
28761;DHT22;15917;50.014;8.352;2023-06-10T14:35:11;31.70;73.00
28761;DHT22;15917;50.014;8.352;2023-06-10T14:37:36;31.50;73.90
28761;DHT22;15917;50.014;8.352;2023-06-10T14:40:04;31.30;73.80
28761;DHT22;15917;50.014;8.352;2023-06-10T14:42:30;31.20;73.60
28761;DHT22;15917;50.014;8.352;2023-06-10T14:44:57;31.30;74.30
28761;DHT22;15917;50.014;8.352;2023-06-10T14:47:23;31.60;74.40
28761;DHT22;15917;50.014;8.352;2023-06-10T14:49:48;32.00;73.20
28761;DHT22;15917;50.014;8.352;2023-06-10T14:52:14;32.30;73.20
28761;DHT22;15917;50.014;8.352;2023-06-10T14:54:39;32.30;72.20
28761;DHT22;15917;50.014;8.352;2023-06-10T14:57:05;32.50;71.60
28761;DHT22;15917;50.014;8.352;2023-06-10T14:59:32;32.70;70.60
28761;DHT22;15917;50.014;8.352;2023-06-10T15:01:58;33.00;70.60
28761;DHT22;15917;50.014;8.352;2023-06-10T15:04:26;33.20;69.40
28761;DHT22;15917;50.014;8.352;2023-06-10T15:06:52;33.10;70.10
28761;DHT22;15917;50.014;8.352;2023-06-10T15:09:17;33.10;68.50
28761;DHT22;15917;50.014;8.352;2023-06-10T15:11:43;33.20;68.30
28761;DHT22;15917;50.014;8.352;2023-06-10T15:14:09;33.10;68.60
28761;DHT22;15917;50.014;8.352;2023-06-10T15:16:34;33.20;68.30
28761;DHT22;15917;50.014;8.352;2023-06-10T15:19:00;33.30;69.10
28761;DHT22;15917;50.014;8.352;2023-06-10T15:21:26;33.10;69.90
28761;DHT22;15917;50.014;8.352;2023-06-10T15:23:51;33.30;70.10
28761;DHT22;15917;50.014;8.352;2023-06-10T15:26:17;33.30;68.50
28761;DHT22;15917;50.014;8.352;2023-06-10T15:28:42;33.10;69.60
28761;DHT22;15917;50.014;8.352;2023-06-10T15:31:08;33.10;69.30
28761;DHT22;15917;50.014;8.352;2023-06-10T15:33:33;33.20;69.00
28761;DHT22;15917;50.014;8.352;2023-06-10T15:35:59;33.30;69.40
28761;DHT22;15917;50.014;8.352;2023-06-10T15:38:25;33.40;69.70
28761;DHT22;15917;50.014;8.352;2023-06-10T15:40:50;33.50;69.40
28761;DHT22;15917;50.014;8.352;2023-06-10T15:43:16;33.50;68.20
28761;DHT22;15917;50.014;8.352;2023-06-10T15:45:41;33.40;67.60
28761;DHT22;15917;50.014;8.352;2023-06-10T15:48:07;33.40;67.80
28761;DHT22;15917;50.014;8.352;2023-06-10T15:50:33;33.40;68.20